createdAt,value
2022-11-06T00:01:50.715Z,94.40
2022-11-06T00:04:17.664Z,94.30
2022-11-06T00:06:50.745Z,94.10
2022-11-06T00:09:20.848Z,94.10
2022-11-06T00:11:50.131Z,94.10
2022-11-06T00:14:18.021Z,94.10
2022-11-06T00:16:46.578Z,93.90
2022-11-06T00:19:13.683Z,93.90
2022-11-06T00:21:40.583Z,93.80
2022-11-06T00:24:09.452Z,93.70
2022-11-06T00:26:36.403Z,93.70
2022-11-06T00:29:05.204Z,93.60
2022-11-06T00:31:37.082Z,93.60
2022-11-06T00:34:07.503Z,93.50
2022-11-06T00:36:35.144Z,93.40
2022-11-06T00:39:02.569Z,93.40
2022-11-06T00:41:29.453Z,93.40
2022-11-06T00:44:01.371Z,93.30
2022-11-06T00:46:28.986Z,93.30
2022-11-06T00:48:56.454Z,93.20
2022-11-06T00:51:30.827Z,93.20
2022-11-06T00:54:04.611Z,93.20
2022-11-06T00:56:32.513Z,93.20
2022-11-06T00:59:00.990Z,93.20
2022-11-06T01:01:34.609Z,93.20
2022-11-06T01:04:14.599Z,93.60
2022-11-06T01:06:44.938Z,93.20
2022-11-06T01:09:15.686Z,93.30
2022-11-06T01:12:11.935Z,93.30
2022-11-06T01:14:34.750Z,93.30
2022-11-06T01:17:01.767Z,93.30
2022-11-06T01:19:28.681Z,93.30
2022-11-06T01:21:55.612Z,93.30
2022-11-06T01:24:27.072Z,93.20
2022-11-06T01:27:20.388Z,93.20
2022-11-06T01:29:41.299Z,93.20
2022-11-06T01:32:08.350Z,93.20
2022-11-06T01:34:35.237Z,93.20
2022-11-06T01:37:02.348Z,93.20
2022-11-06T01:39:29.235Z,93.20
2022-11-06T01:41:56.115Z,93.20
2022-11-06T01:44:40.856Z,93.60
2022-11-06T01:47:25.771Z,93.20
2022-11-06T01:50:00.231Z,93.20
2022-11-06T01:52:29.248Z,93.20
2022-11-06T01:55:11.550Z,93.20
2022-11-06T01:57:38.532Z,93.20
2022-11-06T02:00:07.088Z,93.10
2022-11-06T02:02:34.740Z,93.10
2022-11-06T02:05:01.740Z,93.10
2022-11-06T02:07:28.946Z,93.10
2022-11-06T02:09:55.897Z,93.10
2022-11-06T02:12:43.664Z,93.20
2022-11-06T02:15:42.735Z,93.20
2022-11-06T02:18:59.335Z,93.20
2022-11-06T02:22:06.877Z,93.20
2022-11-06T02:25:12.897Z,93.10
2022-11-06T02:27:45.671Z,93.10
2022-11-06T02:30:15.723Z,93.10
2022-11-06T02:33:00.500Z,93.20
2022-11-06T02:35:40.433Z,93.20
2022-11-06T02:38:16.352Z,93.20
2022-11-06T02:40:49.769Z,93.20
2022-11-06T02:43:19.235Z,93.20
2022-11-06T02:45:55.684Z,93.20
2022-11-06T02:48:33.083Z,93.20
2022-11-06T02:51:05.647Z,93.20
2022-11-06T02:53:33.527Z,93.20
2022-11-06T02:56:09.317Z,93.20
2022-11-06T02:58:48.745Z,93.30
2022-11-06T03:01:43.518Z,93.30
2022-11-06T03:04:24.377Z,93.40
2022-11-06T03:07:06.167Z,93.40
2022-11-06T03:09:33.756Z,93.40
2022-11-06T03:12:17.215Z,93.40
2022-11-06T03:15:25.003Z,93.50
2022-11-06T03:18:13.931Z,93.70
2022-11-06T03:21:03.496Z,93.70
2022-11-06T03:23:53.743Z,93.70
2022-11-06T03:26:50.009Z,93.80
2022-11-06T03:29:42.174Z,93.90
2022-11-06T03:32:24.515Z,94.00
2022-11-06T03:35:01.229Z,94.10
2022-11-06T03:37:39.918Z,94.10
2022-11-06T03:40:14.509Z,94.20
2022-11-06T03:42:43.419Z,94.20
2022-11-06T03:45:16.422Z,94.30
2022-11-06T03:47:53.095Z,94.30
2022-11-06T03:50:48.633Z,94.30
2022-11-06T03:53:26.689Z,94.30
2022-11-06T03:56:02.139Z,94.30
2022-11-06T03:58:37.614Z,94.30
2022-11-06T04:01:08.063Z,94.40
2022-11-06T04:03:44.216Z,94.40
2022-11-06T04:06:30.613Z,94.40
2022-11-06T04:09:21.730Z,94.40
2022-11-06T04:12:08.645Z,94.40
2022-11-06T04:14:40.111Z,94.40
2022-11-06T04:17:11.178Z,94.30
2022-11-06T04:19:43.839Z,94.70
2022-11-06T04:22:58.319Z,94.40
2022-11-06T04:26:05.219Z,94.40
2022-11-06T04:28:58.828Z,94.40
2022-11-06T04:31:49.021Z,94.40
2022-11-06T04:34:46.186Z,94.30
2022-11-06T04:37:27.617Z,94.20
2022-11-06T04:40:10.177Z,94.20
2022-11-06T04:42:57.651Z,94.10
2022-11-06T04:45:39.751Z,94.00
2022-11-06T04:48:07.746Z,94.00
2022-11-06T04:50:43.714Z,93.90
2022-11-06T04:53:11.576Z,93.90
2022-11-06T04:55:51.736Z,93.90
2022-11-06T04:58:18.675Z,93.90
2022-11-06T05:00:49.363Z,93.90
2022-11-06T05:03:17.021Z,93.90
2022-11-06T05:05:43.898Z,93.90
2022-11-06T05:08:20.069Z,93.90
2022-11-06T05:10:47.799Z,93.80
2022-11-06T05:13:15.920Z,94.20
2022-11-06T05:15:43.106Z,93.80
2022-11-06T05:18:10.110Z,93.80
2022-11-06T05:20:37.295Z,93.90
2022-11-06T05:23:04.261Z,93.90
2022-11-06T05:25:35.302Z,93.90
2022-11-06T05:28:05.791Z,94.00
2022-11-06T05:30:33.714Z,94.00
2022-11-06T05:33:00.907Z,94.00
2022-11-06T05:35:28.071Z,94.00
2022-11-06T05:38:02.577Z,94.00
2022-11-06T05:40:29.767Z,94.00
2022-11-06T05:42:56.635Z,94.00
2022-11-06T05:45:23.529Z,93.90
2022-11-06T05:47:50.395Z,93.80
2022-11-06T05:50:17.450Z,93.80
2022-11-06T05:52:44.364Z,93.70
2022-11-06T05:55:14.880Z,93.70
2022-11-06T05:57:42.501Z,93.70
2022-11-06T06:00:11.782Z,93.70
2022-11-06T06:02:43.171Z,94.00
2022-11-06T06:05:10.231Z,93.70
2022-11-06T06:07:37.141Z,93.70
2022-11-06T06:10:04.808Z,93.70
2022-11-06T06:12:31.666Z,93.70
2022-11-06T06:14:58.537Z,93.70
2022-11-06T06:17:25.480Z,93.80
2022-11-06T06:19:52.531Z,93.80
2022-11-06T06:22:19.538Z,93.90
2022-11-06T06:24:46.524Z,93.90
2022-11-06T06:27:13.484Z,93.90
2022-11-06T06:29:40.362Z,94.00
2022-11-06T06:32:07.257Z,94.00
2022-11-06T06:34:34.160Z,94.00
2022-11-06T06:37:01.025Z,93.90
2022-11-06T06:39:27.926Z,94.00
2022-11-06T06:41:54.794Z,93.90
2022-11-06T06:44:21.686Z,93.90
2022-11-06T06:46:48.542Z,93.90
2022-11-06T06:49:15.437Z,93.90
2022-11-06T06:51:42.334Z,93.80
2022-11-06T06:54:09.298Z,93.70
2022-11-06T06:56:36.346Z,93.70
2022-11-06T06:59:03.225Z,93.80
2022-11-06T07:01:30.480Z,93.80
2022-11-06T07:04:01.437Z,93.70
2022-11-06T07:06:30.741Z,93.80
2022-11-06T07:08:57.632Z,93.90
2022-11-06T07:11:24.625Z,93.90
2022-11-06T07:13:51.499Z,93.90
2022-11-06T07:16:18.596Z,93.80
2022-11-06T07:18:45.484Z,93.80
2022-11-06T07:21:13.410Z,93.80
2022-11-06T07:23:40.595Z,93.80
2022-11-06T07:26:07.723Z,93.80
2022-11-06T07:28:34.825Z,93.70
2022-11-06T07:31:04.654Z,93.70
2022-11-06T07:33:32.610Z,93.70
2022-11-06T07:36:08.744Z,93.60
2022-11-06T07:38:36.878Z,93.60
2022-11-06T07:41:12.760Z,93.60
2022-11-06T07:43:41.851Z,93.60
2022-11-06T07:46:12.022Z,93.70
2022-11-06T07:48:39.618Z,93.70
2022-11-06T07:51:08.611Z,93.80
2022-11-06T07:53:36.634Z,93.80
2022-11-06T07:56:04.015Z,93.80
2022-11-06T07:58:31.161Z,93.90
2022-11-06T08:00:58.952Z,93.90
2022-11-06T08:03:28.147Z,93.90
2022-11-06T08:05:55.040Z,93.90
2022-11-06T08:08:21.959Z,93.80
2022-11-06T08:10:51.765Z,93.80
2022-11-06T08:13:18.894Z,93.70
2022-11-06T08:15:46.080Z,93.80
2022-11-06T08:18:13.328Z,93.90
2022-11-06T08:20:41.124Z,93.90
2022-11-06T08:23:11.257Z,93.70
2022-11-06T08:25:39.161Z,93.60
2022-11-06T08:28:06.160Z,93.60
2022-11-06T08:30:33.266Z,93.60
2022-11-06T08:33:07.083Z,93.30
2022-11-06T08:35:37.396Z,93.50
2022-11-06T08:38:04.614Z,93.10
2022-11-06T08:40:31.814Z,92.90
2022-11-06T08:43:03.712Z,92.70
2022-11-06T08:45:31.094Z,92.60
2022-11-06T08:48:02.748Z,92.30
2022-11-06T08:50:31.895Z,92.30
2022-11-06T08:53:04.192Z,92.30
2022-11-06T08:55:32.738Z,92.10
2022-11-06T08:57:59.831Z,92.20
2022-11-06T09:00:27.424Z,92.20
2022-11-06T09:03:10.434Z,92.00
2022-11-06T09:05:41.522Z,92.10
2022-11-06T09:08:09.426Z,92.10
2022-11-06T09:10:38.404Z,92.10
2022-11-06T09:13:05.360Z,92.20
2022-11-06T09:15:32.625Z,92.20
2022-11-06T09:17:59.517Z,92.20
2022-11-06T09:20:27.647Z,92.10
2022-11-06T09:22:55.294Z,91.90
2022-11-06T09:25:22.307Z,92.00
2022-11-06T09:27:58.471Z,91.60
2022-11-06T09:30:27.887Z,92.00
2022-11-06T09:32:58.530Z,92.10
2022-11-06T09:35:30.394Z,92.00
2022-11-06T09:38:07.326Z,91.70
2022-11-06T09:40:53.454Z,91.80
2022-11-06T09:44:02.801Z,91.90
2022-11-06T09:46:26.852Z,91.50
2022-11-06T09:49:06.335Z,91.60
2022-11-06T09:51:50.926Z,91.60
2022-11-06T09:55:00.730Z,91.10
2022-11-06T09:57:52.177Z,91.10
2022-11-06T10:00:19.378Z,91.10
2022-11-06T10:02:56.811Z,91.10
2022-11-06T10:05:31.680Z,90.70
2022-11-06T10:08:01.988Z,90.60
2022-11-06T10:10:45.924Z,90.50
2022-11-06T10:13:51.287Z,89.50
2022-11-06T10:16:53.839Z,89.70
2022-11-06T10:19:41.482Z,88.90
2022-11-06T10:22:08.214Z,86.90
2022-11-06T10:24:58.906Z,86.60
2022-11-06T10:27:41.081Z,86.40
2022-11-06T10:30:16.102Z,85.90
2022-11-06T10:33:01.015Z,85.60
2022-11-06T10:36:08.005Z,84.90
2022-11-06T10:38:38.235Z,84.60
2022-11-06T10:41:05.475Z,85.00
2022-11-06T10:43:37.797Z,84.20
2022-11-06T10:46:29.818Z,84.30
2022-11-06T10:49:05.198Z,83.60
2022-11-06T10:51:58.292Z,84.10
2022-11-06T10:54:49.583Z,84.70
2022-11-06T10:57:40.308Z,83.50
2022-11-06T11:00:13.248Z,82.80
2022-11-06T11:02:47.420Z,83.70
2022-11-06T11:05:20.242Z,83.70
2022-11-06T11:07:49.453Z,83.90
2022-11-06T11:10:29.027Z,83.30
2022-11-06T11:13:05.337Z,84.20
2022-11-06T11:15:48.122Z,83.80
2022-11-06T11:18:34.499Z,84.00
2022-11-06T11:21:28.709Z,83.50
2022-11-06T11:24:07.337Z,82.80
2022-11-06T11:27:01.580Z,83.10
2022-11-06T11:29:41.754Z,83.50
2022-11-06T11:32:09.179Z,83.90
2022-11-06T11:34:49.178Z,82.40
2022-11-06T11:37:34.047Z,82.90
2022-11-06T11:40:39.093Z,83.20
2022-11-06T11:43:24.973Z,83.10
2022-11-06T11:46:10.151Z,83.20
2022-11-06T11:48:52.135Z,82.40
2022-11-06T11:52:04.507Z,81.90
2022-11-06T11:54:34.640Z,82.50
2022-11-06T11:57:07.617Z,82.10
2022-11-06T11:59:44.312Z,82.10
2022-11-06T12:02:29.755Z,82.00
2022-11-06T12:05:06.336Z,82.00
2022-11-06T12:07:42.001Z,81.90
2022-11-06T12:10:28.126Z,81.60
2022-11-06T12:12:56.137Z,81.20
2022-11-06T12:15:39.324Z,81.70
2022-11-06T12:18:13.211Z,81.10
2022-11-06T12:20:45.477Z,81.70
2022-11-06T12:23:37.973Z,81.90
2022-11-06T12:26:18.337Z,82.00
2022-11-06T12:28:50.101Z,80.70
2022-11-06T12:31:37.729Z,81.00
2022-11-06T12:34:17.438Z,80.60
2022-11-06T12:37:08.404Z,81.00
2022-11-06T12:39:40.817Z,80.70
2022-11-06T12:42:12.703Z,81.70
2022-11-06T12:44:39.720Z,81.50
2022-11-06T12:47:39.143Z,81.50
2022-11-06T12:50:15.392Z,81.70
2022-11-06T12:53:06.412Z,82.40
2022-11-06T12:55:49.901Z,81.70
2022-11-06T12:58:34.688Z,81.60
2022-11-06T13:01:28.740Z,82.00
2022-11-06T13:04:12.290Z,82.50
2022-11-06T13:07:10.414Z,82.50
2022-11-06T13:09:45.390Z,83.00
2022-11-06T13:12:24.491Z,83.20
2022-11-06T13:15:21.719Z,83.30
2022-11-06T13:18:14.969Z,83.10
2022-11-06T13:21:08.226Z,83.30
2022-11-06T13:23:48.178Z,83.70
2022-11-06T13:26:47.395Z,83.80
2022-11-06T13:29:17.611Z,83.90
2022-11-06T13:32:07.257Z,84.00
2022-11-06T13:34:38.024Z,84.20
2022-11-06T13:37:21.536Z,84.30
2022-11-06T13:40:06.405Z,84.30
2022-11-06T13:42:43.039Z,84.40
2022-11-06T13:45:15.085Z,84.70
2022-11-06T13:48:09.637Z,84.80
2022-11-06T13:50:51.824Z,85.00
2022-11-06T13:53:43.193Z,85.00
2022-11-06T13:56:43.940Z,85.00
2022-11-06T13:59:33.735Z,84.80
2022-11-06T14:02:18.996Z,84.70
2022-11-06T14:05:41.031Z,84.90
2022-11-06T14:08:20.181Z,85.10
2022-11-06T14:11:01.029Z,85.20
2022-11-06T14:13:35.957Z,85.20
2022-11-06T14:16:14.926Z,85.00
2022-11-06T14:18:42.663Z,85.20
2022-11-06T14:21:37.759Z,85.30
2022-11-06T14:24:37.895Z,85.30
2022-11-06T14:27:24.620Z,85.60
2022-11-06T14:30:43.781Z,85.60
2022-11-06T14:33:43.082Z,85.80
2022-11-06T14:36:25.052Z,85.90
2022-11-06T14:38:55.154Z,85.90
2022-11-06T14:41:34.170Z,86.00
2022-11-06T14:44:24.835Z,86.00
2022-11-06T14:47:00.821Z,86.70
2022-11-06T14:49:40.727Z,86.10
2022-11-06T14:52:13.151Z,86.50
2022-11-06T14:54:55.442Z,86.90
2022-11-06T14:57:46.797Z,87.10
2022-11-06T15:00:43.301Z,87.50
2022-11-06T15:03:26.953Z,87.70
2022-11-06T15:06:18.268Z,88.00
2022-11-06T15:08:50.767Z,88.20
2022-11-06T15:11:32.836Z,88.40
2022-11-06T15:14:02.188Z,88.60
2022-11-06T15:16:43.415Z,88.60
2022-11-06T15:19:23.518Z,88.90
2022-11-06T15:22:17.312Z,88.80
2022-11-06T15:25:03.949Z,88.90
2022-11-06T15:27:53.058Z,88.90
2022-11-06T15:30:20.463Z,89.00
2022-11-06T15:32:49.366Z,88.90
2022-11-06T15:35:21.546Z,89.00
2022-11-06T15:37:57.363Z,89.10
2022-11-06T15:40:27.790Z,89.20
2022-11-06T15:42:57.019Z,89.20
2022-11-06T15:45:28.825Z,89.40
2022-11-06T15:48:15.899Z,89.60
2022-11-06T15:50:43.482Z,89.80
2022-11-06T15:53:13.581Z,89.80
2022-11-06T15:55:50.858Z,90.00
2022-11-06T15:58:17.604Z,90.10
2022-11-06T16:00:46.300Z,90.10
2022-11-06T16:03:17.602Z,90.30
2022-11-06T16:05:45.978Z,90.30
2022-11-06T16:08:15.556Z,90.30
2022-11-06T16:10:48.311Z,90.30
2022-11-06T16:13:20.845Z,90.40
2022-11-06T16:15:57.151Z,90.50
2022-11-06T16:18:35.495Z,90.40
2022-11-06T16:21:13.618Z,90.40
2022-11-06T16:23:53.413Z,90.40
2022-11-06T16:26:24.931Z,90.40
2022-11-06T16:28:54.827Z,90.40
2022-11-06T16:31:24.783Z,90.50
2022-11-06T16:33:57.000Z,90.60
2022-11-06T16:36:25.709Z,90.70
2022-11-06T16:38:53.988Z,90.70
2022-11-06T16:41:58.619Z,90.80
2022-11-06T16:44:31.592Z,91.20
2022-11-06T16:47:04.791Z,90.80
2022-11-06T16:49:37.684Z,91.00
2022-11-06T16:52:39.108Z,91.10
2022-11-06T16:55:16.837Z,91.30
2022-11-06T16:57:55.573Z,91.30
2022-11-06T17:00:31.801Z,91.30
2022-11-06T17:03:08.631Z,91.40
2022-11-06T17:05:37.831Z,91.40
2022-11-06T17:08:36.313Z,91.50
2022-11-06T17:11:21.796Z,91.60
2022-11-06T17:13:50.551Z,91.60
2022-11-06T17:16:24.552Z,91.60
2022-11-06T17:18:51.787Z,91.60
2022-11-06T17:21:22.369Z,91.60
2022-11-06T17:23:50.243Z,91.60
2022-11-06T17:26:29.027Z,91.60
2022-11-06T17:28:57.758Z,91.60
2022-11-06T17:31:25.878Z,91.70
2022-11-06T17:33:53.597Z,91.70
2022-11-06T17:36:22.378Z,91.70
2022-11-06T17:38:49.420Z,91.80
2022-11-06T17:41:32.321Z,91.70
2022-11-06T17:44:01.529Z,91.80
2022-11-06T17:46:33.159Z,91.80
2022-11-06T17:49:00.745Z,91.80
2022-11-06T17:51:46.147Z,91.80
2022-11-06T17:54:13.711Z,91.80
2022-11-06T17:56:40.861Z,91.80
2022-11-06T17:59:09.769Z,91.90
2022-11-06T18:01:36.881Z,91.90
2022-11-06T18:04:04.503Z,92.20
2022-11-06T18:06:31.888Z,91.80
2022-11-06T18:09:01.452Z,91.90
2022-11-06T18:11:30.631Z,91.80
2022-11-06T18:13:57.783Z,91.80
2022-11-06T18:16:28.712Z,91.80
2022-11-06T18:18:56.720Z,91.80
2022-11-06T18:21:24.969Z,91.70
2022-11-06T18:23:52.151Z,91.70
2022-11-06T18:26:22.769Z,91.70
2022-11-06T18:28:50.425Z,91.70
2022-11-06T18:31:18.814Z,91.70
2022-11-06T18:33:45.852Z,91.70
2022-11-06T18:36:14.249Z,91.60
2022-11-06T18:38:41.637Z,91.70
2022-11-06T18:41:14.998Z,91.70
2022-11-06T18:43:42.095Z,91.70
2022-11-06T18:46:12.655Z,91.70
2022-11-06T18:48:40.076Z,91.70
2022-11-06T18:51:12.383Z,91.70
2022-11-06T18:53:40.823Z,91.80
2022-11-06T18:56:17.296Z,91.80
2022-11-06T18:58:44.618Z,91.70
2022-11-06T19:01:18.774Z,91.70
2022-11-06T19:03:46.744Z,91.70
2022-11-06T19:06:17.152Z,91.70
2022-11-06T19:08:45.291Z,91.80
2022-11-06T19:11:15.775Z,91.80
2022-11-06T19:13:47.604Z,91.90
2022-11-06T19:16:16.032Z,91.90
2022-11-06T19:18:42.934Z,91.90
2022-11-06T19:21:11.674Z,91.90
2022-11-06T19:23:41.471Z,91.90
2022-11-06T19:29:00.663Z,91.90
2022-11-06T19:31:31.784Z,91.90
2022-11-06T19:33:59.747Z,91.90
2022-11-06T19:36:27.483Z,91.90
2022-11-06T19:38:54.751Z,91.90
2022-11-06T19:41:21.661Z,91.90
2022-11-06T19:43:48.577Z,91.80
2022-11-06T19:46:23.388Z,91.80
2022-11-06T19:48:52.767Z,91.80
2022-11-06T19:51:19.783Z,91.70
2022-11-06T19:53:46.686Z,91.70
2022-11-06T19:56:16.487Z,91.60
2022-11-06T19:58:43.734Z,91.60
2022-11-06T20:01:15.342Z,91.50
2022-11-06T20:03:42.735Z,91.90
2022-11-06T20:06:10.572Z,91.50
2022-11-06T20:08:38.903Z,91.40
2022-11-06T20:11:08.075Z,91.40
2022-11-06T20:13:39.050Z,91.50
2022-11-06T20:16:08.923Z,91.60
2022-11-06T20:18:36.378Z,91.60
2022-11-06T20:21:07.452Z,91.60
2022-11-06T20:23:35.295Z,91.70
2022-11-06T20:26:03.622Z,91.70
2022-11-06T20:28:30.629Z,91.70
2022-11-06T20:30:58.379Z,91.60
2022-11-06T20:33:25.406Z,91.60
2022-11-06T20:35:52.286Z,91.70
2022-11-06T20:38:19.810Z,91.70
2022-11-06T20:40:46.690Z,91.70
2022-11-06T20:43:13.893Z,91.70
2022-11-06T20:45:40.955Z,91.70
2022-11-06T20:48:09.423Z,91.70
2022-11-06T20:50:36.407Z,91.90
2022-11-06T20:53:03.318Z,91.80
2022-11-06T20:55:30.237Z,91.80
2022-11-06T20:57:57.125Z,91.80
2022-11-06T21:00:24.031Z,91.70
2022-11-06T21:02:51.990Z,91.70
2022-11-06T21:05:19.948Z,91.70
2022-11-06T21:07:46.853Z,91.70
2022-11-06T21:10:13.718Z,91.60
2022-11-06T21:12:40.589Z,91.60
2022-11-06T21:15:08.103Z,91.50
2022-11-06T21:17:35.314Z,91.50
2022-11-06T21:20:02.196Z,91.40
2022-11-06T21:22:29.175Z,91.40
2022-11-06T21:24:56.146Z,91.40
2022-11-06T21:27:23.024Z,91.40
2022-11-06T21:29:49.905Z,91.40
2022-11-06T21:32:16.770Z,91.40
2022-11-06T21:34:43.661Z,91.40
2022-11-06T21:37:10.555Z,91.40
2022-11-06T21:39:37.540Z,91.50
2022-11-06T21:42:05.406Z,91.50
2022-11-06T21:44:32.450Z,91.60
2022-11-06T21:46:59.319Z,91.60
2022-11-06T21:49:26.241Z,91.60
2022-11-06T21:51:54.134Z,91.50
2022-11-06T21:54:39.927Z,91.40
2022-11-06T21:57:06.799Z,91.40
2022-11-06T21:59:37.628Z,91.40
2022-11-06T22:02:09.531Z,91.30
2022-11-06T22:04:36.485Z,91.20
2022-11-06T22:07:03.343Z,91.20
2022-11-06T22:09:30.222Z,91.10
2022-11-06T22:11:59.210Z,91.10
2022-11-06T22:14:27.397Z,91.10
2022-11-06T22:16:54.266Z,91.00
2022-11-06T22:19:21.156Z,91.00
2022-11-06T22:21:48.034Z,91.00
2022-11-06T22:24:15.462Z,91.00
2022-11-06T22:26:42.392Z,91.00
2022-11-06T22:29:12.800Z,91.00
2022-11-06T22:31:40.008Z,90.90
2022-11-06T22:34:06.950Z,90.90
2022-11-06T22:36:33.879Z,90.90
2022-11-06T22:39:06.423Z,90.90
2022-11-06T22:41:33.541Z,90.90
2022-11-06T22:44:01.283Z,90.90
2022-11-06T22:46:29.131Z,90.90
2022-11-06T22:48:57.112Z,90.90
2022-11-06T22:51:27.807Z,90.90
2022-11-06T22:53:55.718Z,90.90
2022-11-06T22:56:24.864Z,90.90
2022-11-06T22:58:56.896Z,90.90
2022-11-06T23:01:26.677Z,90.90
2022-11-06T23:03:57.718Z,90.80
2022-11-06T23:06:25.994Z,91.10
2022-11-06T23:08:53.509Z,90.80
2022-11-06T23:11:22.643Z,90.80
2022-11-06T23:13:49.545Z,90.90
2022-11-06T23:16:42.904Z,90.90
2022-11-06T23:19:12.808Z,90.90
2022-11-06T23:21:40.304Z,90.90
2022-11-06T23:24:07.859Z,90.90
2022-11-06T23:26:35.040Z,90.90
2022-11-06T23:29:02.126Z,91.00
2022-11-06T23:31:29.328Z,91.00
2022-11-06T23:33:56.539Z,91.00
2022-11-06T23:36:23.431Z,91.00
2022-11-06T23:38:53.594Z,91.00
2022-11-06T23:41:39.169Z,91.00
2022-11-06T23:44:26.125Z,91.00
2022-11-06T23:46:53.166Z,90.90
2022-11-06T23:49:20.029Z,90.90
2022-11-06T23:51:47.005Z,91.00
2022-11-06T23:54:14.091Z,91.10
2022-11-06T23:56:40.957Z,91.10
2022-11-06T23:59:07.823Z,91.10
